sensor_id;sensor_type;location;lat;lon;timestamp;P1;durP1;ratioP1;P2;durP2;ratioP2
59555;SDS011;45374;52.746;6.304;2022-09-13T00:01:36;35.08;;;17.40;;
59555;SDS011;45374;52.746;6.304;2022-09-13T00:04:02;27.77;;;17.65;;
59555;SDS011;45374;52.746;6.304;2022-09-13T00:06:28;26.60;;;16.30;;
59555;SDS011;45374;52.746;6.304;2022-09-13T00:08:53;32.75;;;17.83;;
59555;SDS011;45374;52.746;6.304;2022-09-13T00:11:20;33.10;;;18.10;;
59555;SDS011;45374;52.746;6.304;2022-09-13T00:13:49;39.58;;;18.65;;
59555;SDS011;45374;52.746;6.304;2022-09-13T00:16:16;40.78;;;19.98;;
59555;SDS011;45374;52.746;6.304;2022-09-13T00:18:42;39.88;;;21.25;;
59555;SDS011;45374;52.746;6.304;2022-09-13T00:21:09;34.97;;;19.45;;
59555;SDS011;45374;52.746;6.304;2022-09-13T00:23:37;29.17;;;18.42;;
59555;SDS011;45374;52.746;6.304;2022-09-13T00:26:07;40.58;;;20.92;;
59555;SDS011;45374;52.746;6.304;2022-09-13T00:28:35;37.83;;;19.75;;
59555;SDS011;45374;52.746;6.304;2022-09-13T00:31:02;39.75;;;21.38;;
59555;SDS011;45374;52.746;6.304;2022-09-13T00:33:28;40.90;;;22.52;;
59555;SDS011;45374;52.746;6.304;2022-09-13T00:35:54;35.35;;;20.02;;
59555;SDS011;45374;52.746;6.304;2022-09-13T00:38:20;37.00;;;19.90;;
59555;SDS011;45374;52.746;6.304;2022-09-13T00:40:46;41.28;;;21.92;;
59555;SDS011;45374;52.746;6.304;2022-09-13T00:43:15;43.92;;;22.70;;
59555;SDS011;45374;52.746;6.304;2022-09-13T00:45:45;40.83;;;21.60;;
59555;SDS011;45374;52.746;6.304;2022-09-13T00:48:15;51.17;;;25.27;;
59555;SDS011;45374;52.746;6.304;2022-09-13T00:50:47;56.83;;;25.77;;
59555;SDS011;45374;52.746;6.304;2022-09-13T00:53:27;58.28;;;26.50;;
59555;SDS011;45374;52.746;6.304;2022-09-13T00:58:30;48.63;;;26.35;;
59555;SDS011;45374;52.746;6.304;2022-09-13T01:00:57;49.45;;;26.38;;
59555;SDS011;45374;52.746;6.304;2022-09-13T01:03:25;42.75;;;25.13;;
59555;SDS011;45374;52.746;6.304;2022-09-13T01:06:03;51.97;;;28.13;;
59555;SDS011;45374;52.746;6.304;2022-09-13T01:08:33;55.10;;;28.27;;
59555;SDS011;45374;52.746;6.304;2022-09-13T01:11:01;54.00;;;27.85;;
59555;SDS011;45374;52.746;6.304;2022-09-13T01:13:31;60.58;;;29.55;;
59555;SDS011;45374;52.746;6.304;2022-09-13T01:15:58;67.60;;;31.92;;
59555;SDS011;45374;52.746;6.304;2022-09-13T01:18:25;68.50;;;33.63;;
59555;SDS011;45374;52.746;6.304;2022-09-13T01:23:53;48.53;;;28.35;;
59555;SDS011;45374;52.746;6.304;2022-09-13T01:32:15;55.10;;;29.20;;
59555;SDS011;45374;52.746;6.304;2022-09-13T01:37:56;67.13;;;30.75;;
59555;SDS011;45374;52.746;6.304;2022-09-13T01:47:10;83.97;;;33.95;;
59555;SDS011;45374;52.746;6.304;2022-09-13T01:50:52;73.35;;;34.80;;
59555;SDS011;45374;52.746;6.304;2022-09-13T01:53:08;91.70;;;36.08;;
59555;SDS011;45374;52.746;6.304;2022-09-13T01:59:07;107.95;;;38.70;;
59555;SDS011;45374;52.746;6.304;2022-09-13T02:04:10;109.90;;;38.72;;
59555;SDS011;45374;52.746;6.304;2022-09-13T02:06:52;94.57;;;38.33;;
59555;SDS011;45374;52.746;6.304;2022-09-13T02:09:26;101.35;;;39.03;;
59555;SDS011;45374;52.746;6.304;2022-09-13T02:12:03;115.47;;;40.42;;
59555;SDS011;45374;52.746;6.304;2022-09-13T02:14:37;93.32;;;39.33;;
59555;SDS011;45374;52.746;6.304;2022-09-13T02:17:14;92.65;;;38.92;;
59555;SDS011;45374;52.746;6.304;2022-09-13T02:20:00;89.32;;;39.65;;
59555;SDS011;45374;52.746;6.304;2022-09-13T02:22:30;94.47;;;39.67;;
59555;SDS011;45374;52.746;6.304;2022-09-13T02:25:01;87.45;;;37.63;;
59555;SDS011;45374;52.746;6.304;2022-09-13T02:30:00;76.57;;;34.83;;
59555;SDS011;45374;52.746;6.304;2022-09-13T02:32:36;77.05;;;35.45;;
59555;SDS011;45374;52.746;6.304;2022-09-13T02:35:09;58.30;;;30.48;;
59555;SDS011;45374;52.746;6.304;2022-09-13T02:37:45;59.33;;;31.30;;
59555;SDS011;45374;52.746;6.304;2022-09-13T02:40:17;62.42;;;32.38;;
59555;SDS011;45374;52.746;6.304;2022-09-13T02:42:53;55.92;;;29.60;;
59555;SDS011;45374;52.746;6.304;2022-09-13T02:45:27;48.17;;;26.25;;
59555;SDS011;45374;52.746;6.304;2022-09-13T02:53:26;59.55;;;28.58;;
59555;SDS011;45374;52.746;6.304;2022-09-13T02:56:12;54.00;;;27.35;;
59555;SDS011;45374;52.746;6.304;2022-09-13T03:01:15;48.10;;;24.88;;
59555;SDS011;45374;52.746;6.304;2022-09-13T03:03:41;46.55;;;26.17;;
59555;SDS011;45374;52.746;6.304;2022-09-13T03:06:06;61.85;;;27.92;;
59555;SDS011;45374;52.746;6.304;2022-09-13T03:08:32;54.15;;;28.33;;
59555;SDS011;45374;52.746;6.304;2022-09-13T03:11:04;52.42;;;28.77;;
59555;SDS011;45374;52.746;6.304;2022-09-13T03:19:33;57.38;;;28.40;;
59555;SDS011;45374;52.746;6.304;2022-09-13T03:30:20;59.92;;;28.27;;
59555;SDS011;45374;52.746;6.304;2022-09-13T03:35:45;63.10;;;29.00;;
59555;SDS011;45374;52.746;6.304;2022-09-13T03:38:31;60.70;;;27.52;;
59555;SDS011;45374;52.746;6.304;2022-09-13T03:41:09;60.38;;;27.58;;
59555;SDS011;45374;52.746;6.304;2022-09-13T03:43:40;49.88;;;25.90;;
59555;SDS011;45374;52.746;6.304;2022-09-13T03:46:14;55.20;;;26.00;;
59555;SDS011;45374;52.746;6.304;2022-09-13T03:48:55;55.45;;;26.90;;
59555;SDS011;45374;52.746;6.304;2022-09-13T03:51:24;46.72;;;24.30;;
59555;SDS011;45374;52.746;6.304;2022-09-13T03:53:53;52.72;;;25.98;;
59555;SDS011;45374;52.746;6.304;2022-09-13T03:56:22;48.38;;;25.48;;
59555;SDS011;45374;52.746;6.304;2022-09-13T03:58:48;54.95;;;26.60;;
59555;SDS011;45374;52.746;6.304;2022-09-13T04:01:19;48.15;;;26.00;;
59555;SDS011;45374;52.746;6.304;2022-09-13T04:03:47;48.60;;;24.80;;
59555;SDS011;45374;52.746;6.304;2022-09-13T04:06:13;49.03;;;24.73;;
59555;SDS011;45374;52.746;6.304;2022-09-13T04:08:38;48.55;;;26.00;;
59555;SDS011;45374;52.746;6.304;2022-09-13T04:11:04;56.42;;;26.63;;
59555;SDS011;45374;52.746;6.304;2022-09-13T04:13:30;58.40;;;27.05;;
59555;SDS011;45374;52.746;6.304;2022-09-13T04:15:59;53.50;;;26.55;;
59555;SDS011;45374;52.746;6.304;2022-09-13T04:18:29;54.03;;;26.23;;
59555;SDS011;45374;52.746;6.304;2022-09-13T04:20:55;50.38;;;25.83;;
59555;SDS011;45374;52.746;6.304;2022-09-13T04:23:22;47.72;;;25.45;;
59555;SDS011;45374;52.746;6.304;2022-09-13T04:25:49;54.33;;;25.98;;
59555;SDS011;45374;52.746;6.304;2022-09-13T04:28:17;47.50;;;23.77;;
59555;SDS011;45374;52.746;6.304;2022-09-13T04:30:44;48.63;;;25.95;;
59555;SDS011;45374;52.746;6.304;2022-09-13T04:33:10;42.88;;;25.05;;
59555;SDS011;45374;52.746;6.304;2022-09-13T04:35:36;49.45;;;24.98;;
59555;SDS011;45374;52.746;6.304;2022-09-13T04:38:03;47.08;;;25.02;;
59555;SDS011;45374;52.746;6.304;2022-09-13T04:40:29;50.03;;;24.35;;
59555;SDS011;45374;52.746;6.304;2022-09-13T04:42:55;47.92;;;24.45;;
59555;SDS011;45374;52.746;6.304;2022-09-13T04:45:21;50.70;;;25.83;;
59555;SDS011;45374;52.746;6.304;2022-09-13T04:47:53;46.85;;;25.30;;
59555;SDS011;45374;52.746;6.304;2022-09-13T04:50:20;42.88;;;23.98;;
59555;SDS011;45374;52.746;6.304;2022-09-13T04:52:47;41.00;;;23.08;;
59555;SDS011;45374;52.746;6.304;2022-09-13T04:55:13;41.78;;;21.92;;
59555;SDS011;45374;52.746;6.304;2022-09-13T04:57:39;40.22;;;21.35;;
59555;SDS011;45374;52.746;6.304;2022-09-13T05:00:06;33.50;;;17.98;;
59555;SDS011;45374;52.746;6.304;2022-09-13T05:02:32;33.65;;;17.88;;
59555;SDS011;45374;52.746;6.304;2022-09-13T05:04:58;37.03;;;20.27;;
59555;SDS011;45374;52.746;6.304;2022-09-13T05:07:23;41.47;;;21.83;;
59555;SDS011;45374;52.746;6.304;2022-09-13T05:09:49;37.60;;;21.65;;
59555;SDS011;45374;52.746;6.304;2022-09-13T05:12:14;36.65;;;21.20;;
59555;SDS011;45374;52.746;6.304;2022-09-13T05:14:40;38.08;;;20.45;;
59555;SDS011;45374;52.746;6.304;2022-09-13T05:17:06;34.65;;;19.25;;
59555;SDS011;45374;52.746;6.304;2022-09-13T05:19:31;38.25;;;18.10;;
59555;SDS011;45374;52.746;6.304;2022-09-13T05:21:57;25.77;;;16.23;;
59555;SDS011;45374;52.746;6.304;2022-09-13T05:24:22;26.42;;;14.10;;
59555;SDS011;45374;52.746;6.304;2022-09-13T05:26:48;23.23;;;12.75;;
59555;SDS011;45374;52.746;6.304;2022-09-13T05:29:13;21.85;;;12.95;;
59555;SDS011;45374;52.746;6.304;2022-09-13T05:31:41;20.90;;;13.35;;
59555;SDS011;45374;52.746;6.304;2022-09-13T05:34:11;12.50;;;8.73;;
59555;SDS011;45374;52.746;6.304;2022-09-13T05:36:38;15.77;;;8.65;;
59555;SDS011;45374;52.746;6.304;2022-09-13T05:39:05;19.50;;;8.85;;
59555;SDS011;45374;52.746;6.304;2022-09-13T05:41:31;13.68;;;8.50;;
59555;SDS011;45374;52.746;6.304;2022-09-13T05:43:57;17.40;;;8.73;;
59555;SDS011;45374;52.746;6.304;2022-09-13T05:46:23;16.25;;;8.38;;
59555;SDS011;45374;52.746;6.304;2022-09-13T05:48:49;13.40;;;7.35;;
59555;SDS011;45374;52.746;6.304;2022-09-13T05:51:15;10.25;;;6.10;;
59555;SDS011;45374;52.746;6.304;2022-09-13T05:53:42;11.07;;;6.10;;
59555;SDS011;45374;52.746;6.304;2022-09-13T05:56:13;11.13;;;5.45;;
59555;SDS011;45374;52.746;6.304;2022-09-13T05:58:41;7.83;;;4.97;;
59555;SDS011;45374;52.746;6.304;2022-09-13T06:01:09;11.23;;;4.82;;
59555;SDS011;45374;52.746;6.304;2022-09-13T06:03:35;12.45;;;4.35;;
59555;SDS011;45374;52.746;6.304;2022-09-13T06:06:01;8.55;;;3.78;;
59555;SDS011;45374;52.746;6.304;2022-09-13T06:08:28;7.20;;;3.75;;
59555;SDS011;45374;52.746;6.304;2022-09-13T06:11:05;9.95;;;4.00;;
59555;SDS011;45374;52.746;6.304;2022-09-13T06:13:33;8.02;;;4.10;;
59555;SDS011;45374;52.746;6.304;2022-09-13T06:15:59;8.77;;;3.47;;
59555;SDS011;45374;52.746;6.304;2022-09-13T06:18:26;4.93;;;2.85;;
59555;SDS011;45374;52.746;6.304;2022-09-13T06:21:05;5.85;;;3.05;;
59555;SDS011;45374;52.746;6.304;2022-09-13T06:23:33;7.85;;;3.25;;
59555;SDS011;45374;52.746;6.304;2022-09-13T06:28:34;8.77;;;2.78;;
59555;SDS011;45374;52.746;6.304;2022-09-13T06:31:04;9.05;;;3.38;;
59555;SDS011;45374;52.746;6.304;2022-09-13T06:33:33;8.18;;;3.20;;
59555;SDS011;45374;52.746;6.304;2022-09-13T06:36:00;7.22;;;3.47;;
59555;SDS011;45374;52.746;6.304;2022-09-13T06:38:26;7.57;;;3.42;;
59555;SDS011;45374;52.746;6.304;2022-09-13T06:41:00;15.38;;;3.80;;
59555;SDS011;45374;52.746;6.304;2022-09-13T06:43:26;7.40;;;3.90;;
59555;SDS011;45374;52.746;6.304;2022-09-13T06:45:52;7.57;;;3.22;;
59555;SDS011;45374;52.746;6.304;2022-09-13T06:48:18;8.38;;;3.45;;
59555;SDS011;45374;52.746;6.304;2022-09-13T06:50:43;10.48;;;3.58;;
59555;SDS011;45374;52.746;6.304;2022-09-13T06:53:09;6.80;;;3.45;;
59555;SDS011;45374;52.746;6.304;2022-09-13T06:55:36;7.85;;;3.42;;
59555;SDS011;45374;52.746;6.304;2022-09-13T06:58:02;10.80;;;3.50;;
59555;SDS011;45374;52.746;6.304;2022-09-13T07:00:27;7.95;;;3.70;;
59555;SDS011;45374;52.746;6.304;2022-09-13T07:02:53;10.43;;;4.30;;
59555;SDS011;45374;52.746;6.304;2022-09-13T07:05:19;10.55;;;4.00;;
59555;SDS011;45374;52.746;6.304;2022-09-13T07:07:45;8.77;;;3.97;;
59555;SDS011;45374;52.746;6.304;2022-09-13T07:10:11;10.02;;;4.35;;
59555;SDS011;45374;52.746;6.304;2022-09-13T07:12:39;11.63;;;4.10;;
59555;SDS011;45374;52.746;6.304;2022-09-13T07:15:05;15.80;;;4.00;;
59555;SDS011;45374;52.746;6.304;2022-09-13T07:17:31;11.40;;;4.20;;
59555;SDS011;45374;52.746;6.304;2022-09-13T07:19:57;11.07;;;4.57;;
59555;SDS011;45374;52.746;6.304;2022-09-13T07:22:22;10.10;;;4.30;;
59555;SDS011;45374;52.746;6.304;2022-09-13T07:24:51;10.38;;;4.38;;
59555;SDS011;45374;52.746;6.304;2022-09-13T07:27:16;7.90;;;4.25;;
59555;SDS011;45374;52.746;6.304;2022-09-13T07:29:42;14.00;;;4.68;;
59555;SDS011;45374;52.746;6.304;2022-09-13T07:32:08;18.15;;;4.55;;
59555;SDS011;45374;52.746;6.304;2022-09-13T07:34:33;12.57;;;5.00;;
59555;SDS011;45374;52.746;6.304;2022-09-13T07:36:59;8.85;;;4.50;;
59555;SDS011;45374;52.746;6.304;2022-09-13T07:39:25;8.20;;;4.72;;
59555;SDS011;45374;52.746;6.304;2022-09-13T07:41:51;10.63;;;4.63;;
59555;SDS011;45374;52.746;6.304;2022-09-13T07:44:17;9.45;;;5.05;;
59555;SDS011;45374;52.746;6.304;2022-09-13T07:46:43;9.18;;;5.15;;
59555;SDS011;45374;52.746;6.304;2022-09-13T07:49:10;9.10;;;4.70;;
59555;SDS011;45374;52.746;6.304;2022-09-13T07:51:38;8.40;;;4.45;;
59555;SDS011;45374;52.746;6.304;2022-09-13T07:54:05;8.82;;;4.55;;
59555;SDS011;45374;52.746;6.304;2022-09-13T07:56:35;10.25;;;4.53;;
59555;SDS011;45374;52.746;6.304;2022-09-13T07:59:03;6.40;;;4.18;;
59555;SDS011;45374;52.746;6.304;2022-09-13T08:01:38;8.23;;;3.60;;
59555;SDS011;45374;52.746;6.304;2022-09-13T08:04:09;8.40;;;3.33;;
59555;SDS011;45374;52.746;6.304;2022-09-13T08:06:37;11.73;;;2.80;;
59555;SDS011;45374;52.746;6.304;2022-09-13T08:09:04;8.85;;;2.50;;
59555;SDS011;45374;52.746;6.304;2022-09-13T08:11:32;10.13;;;2.35;;
59555;SDS011;45374;52.746;6.304;2022-09-13T08:14:00;9.18;;;2.53;;
59555;SDS011;45374;52.746;6.304;2022-09-13T08:16:26;6.30;;;1.98;;
59555;SDS011;45374;52.746;6.304;2022-09-13T08:18:54;2.67;;;1.77;;
59555;SDS011;45374;52.746;6.304;2022-09-13T08:21:21;9.10;;;1.90;;
59555;SDS011;45374;52.746;6.304;2022-09-13T08:23:48;8.32;;;1.92;;
59555;SDS011;45374;52.746;6.304;2022-09-13T08:26:17;7.18;;;1.58;;
59555;SDS011;45374;52.746;6.304;2022-09-13T08:28:43;5.50;;;1.88;;
59555;SDS011;45374;52.746;6.304;2022-09-13T08:31:09;5.30;;;1.67;;
59555;SDS011;45374;52.746;6.304;2022-09-13T08:33:38;6.07;;;1.80;;
59555;SDS011;45374;52.746;6.304;2022-09-13T08:36:04;9.27;;;2.50;;
59555;SDS011;45374;52.746;6.304;2022-09-13T08:38:30;8.07;;;2.25;;
59555;SDS011;45374;52.746;6.304;2022-09-13T08:41:03;7.93;;;2.47;;
59555;SDS011;45374;52.746;6.304;2022-09-13T08:43:48;6.22;;;2.28;;
59555;SDS011;45374;52.746;6.304;2022-09-13T08:48:53;6.35;;;2.25;;
59555;SDS011;45374;52.746;6.304;2022-09-13T08:54:04;8.07;;;2.00;;
59555;SDS011;45374;52.746;6.304;2022-09-13T08:56:37;8.43;;;1.80;;
59555;SDS011;45374;52.746;6.304;2022-09-13T09:02:18;10.65;;;2.33;;
59555;SDS011;45374;52.746;6.304;2022-09-13T09:05:05;4.53;;;1.70;;
59555;SDS011;45374;52.746;6.304;2022-09-13T09:07:43;8.77;;;1.90;;
59555;SDS011;45374;52.746;6.304;2022-09-13T09:10:20;6.13;;;1.90;;
59555;SDS011;45374;52.746;6.304;2022-09-13T09:15:23;3.33;;;1.63;;
59555;SDS011;45374;52.746;6.304;2022-09-13T09:17:59;5.07;;;1.80;;
59555;SDS011;45374;52.746;6.304;2022-09-13T09:23:02;5.90;;;1.50;;
59555;SDS011;45374;52.746;6.304;2022-09-13T09:25:32;5.28;;;1.77;;
59555;SDS011;45374;52.746;6.304;2022-09-13T09:27:58;5.68;;;1.45;;
59555;SDS011;45374;52.746;6.304;2022-09-13T09:30:28;5.70;;;1.50;;
59555;SDS011;45374;52.746;6.304;2022-09-13T09:33:21;5.72;;;1.60;;
59555;SDS011;45374;52.746;6.304;2022-09-13T09:36:15;6.47;;;1.67;;
59555;SDS011;45374;52.746;6.304;2022-09-13T09:38:57;3.10;;;1.02;;
59555;SDS011;45374;52.746;6.304;2022-09-13T09:41:29;4.72;;;1.40;;
59555;SDS011;45374;52.746;6.304;2022-09-13T09:46:55;2.40;;;1.50;;
59555;SDS011;45374;52.746;6.304;2022-09-13T09:49:36;3.60;;;1.50;;
59555;SDS011;45374;52.746;6.304;2022-09-13T09:52:26;3.33;;;1.35;;
59555;SDS011;45374;52.746;6.304;2022-09-13T09:55:03;3.75;;;1.20;;
59555;SDS011;45374;52.746;6.304;2022-09-13T09:57:51;6.28;;;1.67;;
59555;SDS011;45374;52.746;6.304;2022-09-13T10:00:31;3.42;;;1.30;;
59555;SDS011;45374;52.746;6.304;2022-09-13T10:03:03;1.92;;;1.20;;
59555;SDS011;45374;52.746;6.304;2022-09-13T10:05:41;4.45;;;1.30;;
59555;SDS011;45374;52.746;6.304;2022-09-13T10:08:07;6.13;;;1.38;;
59555;SDS011;45374;52.746;6.304;2022-09-13T10:10:51;4.03;;;1.25;;
59555;SDS011;45374;52.746;6.304;2022-09-13T10:13:19;3.15;;;1.17;;
59555;SDS011;45374;52.746;6.304;2022-09-13T10:18:25;4.63;;;1.30;;
59555;SDS011;45374;52.746;6.304;2022-09-13T10:21:03;3.38;;;1.30;;
59555;SDS011;45374;52.746;6.304;2022-09-13T10:23:46;3.92;;;1.42;;
59555;SDS011;45374;52.746;6.304;2022-09-13T10:26:23;3.20;;;1.10;;
59555;SDS011;45374;52.746;6.304;2022-09-13T10:29:04;7.93;;;1.30;;
59555;SDS011;45374;52.746;6.304;2022-09-13T10:31:36;2.33;;;1.20;;
59555;SDS011;45374;52.746;6.304;2022-09-13T10:34:15;4.00;;;1.23;;
59555;SDS011;45374;52.746;6.304;2022-09-13T10:39:19;4.60;;;1.20;;
59555;SDS011;45374;52.746;6.304;2022-09-13T10:41:57;2.65;;;0.95;;
59555;SDS011;45374;52.746;6.304;2022-09-13T10:44:37;4.53;;;1.10;;
59555;SDS011;45374;52.746;6.304;2022-09-13T10:47:05;2.38;;;1.10;;
59555;SDS011;45374;52.746;6.304;2022-09-13T10:49:43;3.47;;;1.03;;
59555;SDS011;45374;52.746;6.304;2022-09-13T10:57:42;3.67;;;1.13;;
59555;SDS011;45374;52.746;6.304;2022-09-13T11:00:14;3.88;;;1.30;;
59555;SDS011;45374;52.746;6.304;2022-09-13T11:11:21;4.82;;;1.00;;
59555;SDS011;45374;52.746;6.304;2022-09-13T11:14:05;1.92;;;0.93;;
59555;SDS011;45374;52.746;6.304;2022-09-13T11:31:20;6.07;;;1.40;;
59555;SDS011;45374;52.746;6.304;2022-09-13T11:42:04;5.72;;;1.20;;
59555;SDS011;45374;52.746;6.304;2022-09-13T11:55:53;3.35;;;0.88;;
59555;SDS011;45374;52.746;6.304;2022-09-13T12:01:12;6.35;;;1.02;;
59555;SDS011;45374;52.746;6.304;2022-09-13T12:03:58;5.75;;;1.17;;
59555;SDS011;45374;52.746;6.304;2022-09-13T12:06:31;6.32;;;1.13;;
59555;SDS011;45374;52.746;6.304;2022-09-13T12:09:02;7.45;;;1.42;;
59555;SDS011;45374;52.746;6.304;2022-09-13T12:11:38;6.72;;;1.10;;
59555;SDS011;45374;52.746;6.304;2022-09-13T12:14:12;4.22;;;1.02;;
59555;SDS011;45374;52.746;6.304;2022-09-13T12:16:45;9.52;;;1.02;;
59555;SDS011;45374;52.746;6.304;2022-09-13T12:22:11;7.22;;;1.10;;
59555;SDS011;45374;52.746;6.304;2022-09-13T12:24:42;4.15;;;1.15;;
59555;SDS011;45374;52.746;6.304;2022-09-13T12:27:21;5.57;;;1.10;;
59555;SDS011;45374;52.746;6.304;2022-09-13T12:32:43;6.22;;;1.10;;
59555;SDS011;45374;52.746;6.304;2022-09-13T12:40:23;5.78;;;1.08;;
59555;SDS011;45374;52.746;6.304;2022-09-13T12:45:39;5.43;;;1.33;;
59555;SDS011;45374;52.746;6.304;2022-09-13T12:48:28;5.32;;;1.00;;
59555;SDS011;45374;52.746;6.304;2022-09-13T12:51:04;6.53;;;1.30;;
59555;SDS011;45374;52.746;6.304;2022-09-13T12:56:28;6.73;;;1.10;;
59555;SDS011;45374;52.746;6.304;2022-09-13T13:01:45;6.25;;;1.20;;
59555;SDS011;45374;52.746;6.304;2022-09-13T13:06:52;5.47;;;1.00;;
59555;SDS011;45374;52.746;6.304;2022-09-13T13:09:30;7.45;;;1.15;;
59555;SDS011;45374;52.746;6.304;2022-09-13T13:14:54;4.53;;;1.02;;
59555;SDS011;45374;52.746;6.304;2022-09-13T13:23:29;3.75;;;1.05;;
59555;SDS011;45374;52.746;6.304;2022-09-13T13:33:48;3.45;;;1.08;;
59555;SDS011;45374;52.746;6.304;2022-09-13T13:39:11;4.38;;;0.82;;
59555;SDS011;45374;52.746;6.304;2022-09-13T13:46:45;5.15;;;1.10;;
59555;SDS011;45374;52.746;6.304;2022-09-13T13:55:06;4.03;;;1.00;;
59555;SDS011;45374;52.746;6.304;2022-09-13T14:00:55;6.85;;;1.13;;
59555;SDS011;45374;52.746;6.304;2022-09-13T14:03:27;6.07;;;1.10;;
59555;SDS011;45374;52.746;6.304;2022-09-13T14:06:25;6.05;;;1.05;;
59555;SDS011;45374;52.746;6.304;2022-09-13T14:11:40;4.47;;;0.90;;
59555;SDS011;45374;52.746;6.304;2022-09-13T14:20:11;5.65;;;1.17;;
59555;SDS011;45374;52.746;6.304;2022-09-13T14:22:40;3.85;;;1.00;;
59555;SDS011;45374;52.746;6.304;2022-09-13T14:27:44;5.65;;;1.23;;
59555;SDS011;45374;52.746;6.304;2022-09-13T14:30:18;6.28;;;1.20;;
59555;SDS011;45374;52.746;6.304;2022-09-13T14:32:47;5.95;;;1.30;;
59555;SDS011;45374;52.746;6.304;2022-09-13T14:35:29;10.70;;;1.42;;
59555;SDS011;45374;52.746;6.304;2022-09-13T14:40:50;6.45;;;1.48;;
59555;SDS011;45374;52.746;6.304;2022-09-13T14:43:21;7.25;;;1.50;;
59555;SDS011;45374;52.746;6.304;2022-09-13T14:45:50;4.45;;;1.50;;
59555;SDS011;45374;52.746;6.304;2022-09-13T14:50:50;5.70;;;1.40;;
59555;SDS011;45374;52.746;6.304;2022-09-13T14:53:20;7.97;;;1.38;;
59555;SDS011;45374;52.746;6.304;2022-09-13T14:55:53;4.30;;;1.30;;
59555;SDS011;45374;52.746;6.304;2022-09-13T14:58:25;9.45;;;1.55;;
59555;SDS011;45374;52.746;6.304;2022-09-13T15:01:02;7.60;;;1.60;;
59555;SDS011;45374;52.746;6.304;2022-09-13T15:03:32;8.20;;;1.38;;
59555;SDS011;45374;52.746;6.304;2022-09-13T15:06:00;8.45;;;1.60;;
59555;SDS011;45374;52.746;6.304;2022-09-13T15:10:58;8.93;;;2.13;;
59555;SDS011;45374;52.746;6.304;2022-09-13T15:13:25;7.75;;;1.70;;
59555;SDS011;45374;52.746;6.304;2022-09-13T15:15:51;7.40;;;1.60;;
59555;SDS011;45374;52.746;6.304;2022-09-13T15:23:35;7.50;;;1.58;;
59555;SDS011;45374;52.746;6.304;2022-09-13T15:28:49;8.73;;;1.75;;
59555;SDS011;45374;52.746;6.304;2022-09-13T15:33:47;6.57;;;1.50;;
59555;SDS011;45374;52.746;6.304;2022-09-13T15:36:33;7.07;;;1.45;;
59555;SDS011;45374;52.746;6.304;2022-09-13T15:39:00;8.73;;;1.48;;
59555;SDS011;45374;52.746;6.304;2022-09-13T15:41:36;7.63;;;1.63;;
59555;SDS011;45374;52.746;6.304;2022-09-13T15:44:07;5.28;;;1.65;;
59555;SDS011;45374;52.746;6.304;2022-09-13T15:46:35;11.50;;;1.50;;
59555;SDS011;45374;52.746;6.304;2022-09-13T15:49:08;6.20;;;1.35;;
59555;SDS011;45374;52.746;6.304;2022-09-13T15:51:42;5.95;;;1.50;;
59555;SDS011;45374;52.746;6.304;2022-09-13T15:54:12;11.50;;;1.75;;
59555;SDS011;45374;52.746;6.304;2022-09-13T15:56:41;8.25;;;1.50;;
59555;SDS011;45374;52.746;6.304;2022-09-13T15:59:14;7.00;;;1.48;;
59555;SDS011;45374;52.746;6.304;2022-09-13T16:01:41;9.20;;;1.60;;
59555;SDS011;45374;52.746;6.304;2022-09-13T16:04:08;9.15;;;1.50;;
59555;SDS011;45374;52.746;6.304;2022-09-13T16:06:34;10.68;;;1.83;;
59555;SDS011;45374;52.746;6.304;2022-09-13T16:09:00;13.93;;;1.98;;
59555;SDS011;45374;52.746;6.304;2022-09-13T16:11:26;9.02;;;1.60;;
59555;SDS011;45374;52.746;6.304;2022-09-13T16:13:52;9.27;;;1.52;;
59555;SDS011;45374;52.746;6.304;2022-09-13T16:16:18;9.40;;;1.27;;
59555;SDS011;45374;52.746;6.304;2022-09-13T16:18:43;8.32;;;1.40;;
59555;SDS011;45374;52.746;6.304;2022-09-13T16:21:09;6.50;;;2.00;;
59555;SDS011;45374;52.746;6.304;2022-09-13T16:23:35;9.90;;;1.30;;
59555;SDS011;45374;52.746;6.304;2022-09-13T16:26:00;7.15;;;1.70;;
59555;SDS011;45374;52.746;6.304;2022-09-13T16:28:28;8.50;;;1.52;;
59555;SDS011;45374;52.746;6.304;2022-09-13T16:30:53;6.35;;;1.40;;
59555;SDS011;45374;52.746;6.304;2022-09-13T16:33:19;9.48;;;1.50;;
59555;SDS011;45374;52.746;6.304;2022-09-13T16:35:45;8.80;;;1.50;;
59555;SDS011;45374;52.746;6.304;2022-09-13T16:38:11;13.55;;;2.55;;
59555;SDS011;45374;52.746;6.304;2022-09-13T16:40:37;8.68;;;1.80;;
59555;SDS011;45374;52.746;6.304;2022-09-13T16:43:05;7.15;;;1.50;;
59555;SDS011;45374;52.746;6.304;2022-09-13T16:45:30;8.60;;;1.67;;
59555;SDS011;45374;52.746;6.304;2022-09-13T16:47:56;9.20;;;1.67;;
59555;SDS011;45374;52.746;6.304;2022-09-13T16:50:22;7.57;;;1.50;;
59555;SDS011;45374;52.746;6.304;2022-09-13T16:52:47;9.38;;;1.67;;
59555;SDS011;45374;52.746;6.304;2022-09-13T16:55:13;13.57;;;1.85;;
59555;SDS011;45374;52.746;6.304;2022-09-13T16:57:40;11.73;;;1.70;;
59555;SDS011;45374;52.746;6.304;2022-09-13T17:00:07;12.23;;;2.08;;
59555;SDS011;45374;52.746;6.304;2022-09-13T17:02:35;9.20;;;2.05;;
59555;SDS011;45374;52.746;6.304;2022-09-13T17:05:00;13.75;;;1.80;;
59555;SDS011;45374;52.746;6.304;2022-09-13T17:07:26;9.65;;;2.08;;
59555;SDS011;45374;52.746;6.304;2022-09-13T17:09:51;7.63;;;1.52;;
59555;SDS011;45374;52.746;6.304;2022-09-13T17:12:17;10.35;;;1.90;;
59555;SDS011;45374;52.746;6.304;2022-09-13T17:14:43;8.32;;;1.50;;
59555;SDS011;45374;52.746;6.304;2022-09-13T17:17:11;6.72;;;1.50;;
59555;SDS011;45374;52.746;6.304;2022-09-13T17:19:38;6.97;;;1.13;;
59555;SDS011;45374;52.746;6.304;2022-09-13T17:22:04;9.40;;;1.38;;
59555;SDS011;45374;52.746;6.304;2022-09-13T17:24:32;8.93;;;1.40;;
59555;SDS011;45374;52.746;6.304;2022-09-13T17:26:58;9.95;;;1.83;;
59555;SDS011;45374;52.746;6.304;2022-09-13T17:29:24;8.35;;;1.55;;
59555;SDS011;45374;52.746;6.304;2022-09-13T17:31:54;8.93;;;1.45;;
59555;SDS011;45374;52.746;6.304;2022-09-13T17:34:21;6.97;;;1.30;;
59555;SDS011;45374;52.746;6.304;2022-09-13T17:36:46;12.90;;;1.70;;
59555;SDS011;45374;52.746;6.304;2022-09-13T17:39:12;10.75;;;1.60;;
59555;SDS011;45374;52.746;6.304;2022-09-13T17:41:38;7.95;;;1.55;;
59555;SDS011;45374;52.746;6.304;2022-09-13T17:44:04;12.13;;;1.77;;
59555;SDS011;45374;52.746;6.304;2022-09-13T17:46:30;10.68;;;1.73;;
59555;SDS011;45374;52.746;6.304;2022-09-13T17:48:57;9.07;;;1.70;;
59555;SDS011;45374;52.746;6.304;2022-09-13T17:51:27;15.48;;;1.92;;
59555;SDS011;45374;52.746;6.304;2022-09-13T17:53:55;10.13;;;1.97;;
59555;SDS011;45374;52.746;6.304;2022-09-13T17:56:26;12.38;;;1.83;;
59555;SDS011;45374;52.746;6.304;2022-09-13T17:59:17;8.80;;;1.45;;
59555;SDS011;45374;52.746;6.304;2022-09-13T18:01:52;12.90;;;1.50;;
59555;SDS011;45374;52.746;6.304;2022-09-13T18:04:21;7.43;;;1.92;;
59555;SDS011;45374;52.746;6.304;2022-09-13T18:06:48;9.55;;;1.80;;
59555;SDS011;45374;52.746;6.304;2022-09-13T18:09:15;9.35;;;2.05;;
59555;SDS011;45374;52.746;6.304;2022-09-13T18:11:41;10.90;;;1.67;;
59555;SDS011;45374;52.746;6.304;2022-09-13T18:14:10;7.65;;;1.80;;
59555;SDS011;45374;52.746;6.304;2022-09-13T18:16:37;9.93;;;2.00;;
59555;SDS011;45374;52.746;6.304;2022-09-13T18:19:03;6.97;;;1.40;;
59555;SDS011;45374;52.746;6.304;2022-09-13T18:21:29;10.52;;;2.10;;
59555;SDS011;45374;52.746;6.304;2022-09-13T18:23:56;12.18;;;1.95;;
59555;SDS011;45374;52.746;6.304;2022-09-13T18:26:24;10.43;;;2.03;;
59555;SDS011;45374;52.746;6.304;2022-09-13T18:28:52;11.73;;;1.80;;
59555;SDS011;45374;52.746;6.304;2022-09-13T18:31:20;13.15;;;2.20;;